sensor_id;sensor_type;location;lat;lon;timestamp;temperature;humidity
65291;SHT30;51893;59.754;10.110;2023-08-06T00:00:18;15.49;86.01
65291;SHT30;51893;59.754;10.110;2023-08-06T00:03:06;15.49;85.78
65291;SHT30;51893;59.754;10.110;2023-08-06T00:05:35;15.50;85.78
65291;SHT30;51893;59.754;10.110;2023-08-06T00:08:03;15.48;85.85
65291;SHT30;51893;59.754;10.110;2023-08-06T00:10:31;15.47;85.90
65291;SHT30;51893;59.754;10.110;2023-08-06T00:12:58;15.47;85.90
65291;SHT30;51893;59.754;10.110;2023-08-06T00:15:26;15.44;85.99
65291;SHT30;51893;59.754;10.110;2023-08-06T00:17:54;15.43;85.96
65291;SHT30;51893;59.754;10.110;2023-08-06T00:20:22;15.40;86.02
65291;SHT30;51893;59.754;10.110;2023-08-06T00:22:50;15.41;86.10
65291;SHT30;51893;59.754;10.110;2023-08-06T00:25:18;15.39;86.19
65291;SHT30;51893;59.754;10.110;2023-08-06T00:27:47;15.38;86.28
65291;SHT30;51893;59.754;10.110;2023-08-06T00:30:15;15.40;86.26
65291;SHT30;51893;59.754;10.110;2023-08-06T00:32:43;15.43;86.17
65291;SHT30;51893;59.754;10.110;2023-08-06T00:35:12;15.46;86.04
65291;SHT30;51893;59.754;10.110;2023-08-06T00:37:41;15.49;86.04
65291;SHT30;51893;59.754;10.110;2023-08-06T00:40:08;15.42;86.15
65291;SHT30;51893;59.754;10.110;2023-08-06T00:42:36;15.38;86.23
65291;SHT30;51893;59.754;10.110;2023-08-06T00:45:04;15.35;86.39
65291;SHT30;51893;59.754;10.110;2023-08-06T00:47:32;15.33;86.49
65291;SHT30;51893;59.754;10.110;2023-08-06T00:50:00;15.33;86.43
65291;SHT30;51893;59.754;10.110;2023-08-06T00:52:28;15.32;86.46
65291;SHT30;51893;59.754;10.110;2023-08-06T00:54:56;15.32;86.43
65291;SHT30;51893;59.754;10.110;2023-08-06T00:57:24;15.33;86.45
65291;SHT30;51893;59.754;10.110;2023-08-06T00:59:53;15.34;86.42
65291;SHT30;51893;59.754;10.110;2023-08-06T01:02:21;15.34;86.55
65291;SHT30;51893;59.754;10.110;2023-08-06T01:04:49;15.36;86.54
65291;SHT30;51893;59.754;10.110;2023-08-06T01:07:21;15.41;86.46
65291;SHT30;51893;59.754;10.110;2023-08-06T01:10:10;15.50;86.23
65291;SHT30;51893;59.754;10.110;2023-08-06T01:15:46;15.44;86.28
65291;SHT30;51893;59.754;10.110;2023-08-06T01:18:18;15.43;86.36
65291;SHT30;51893;59.754;10.110;2023-08-06T01:20:46;15.43;86.27
65291;SHT30;51893;59.754;10.110;2023-08-06T01:23:13;15.42;86.35
65291;SHT30;51893;59.754;10.110;2023-08-06T01:31:24;15.25;86.54
65291;SHT30;51893;59.754;10.110;2023-08-06T01:33:58;15.17;86.72
65291;SHT30;51893;59.754;10.110;2023-08-06T01:36:28;15.15;86.80
65291;SHT30;51893;59.754;10.110;2023-08-06T01:38:57;15.18;86.81
65291;SHT30;51893;59.754;10.110;2023-08-06T01:41:25;15.25;86.80
65291;SHT30;51893;59.754;10.110;2023-08-06T01:43:53;15.24;86.80
65291;SHT30;51893;59.754;10.110;2023-08-06T01:46:20;15.24;86.80
65291;SHT30;51893;59.754;10.110;2023-08-06T01:48:48;15.29;86.71
65291;SHT30;51893;59.754;10.110;2023-08-06T01:51:16;15.29;86.71
65291;SHT30;51893;59.754;10.110;2023-08-06T01:53:44;15.26;86.68
65291;SHT30;51893;59.754;10.110;2023-08-06T01:56:14;15.27;86.80
65291;SHT30;51893;59.754;10.110;2023-08-06T01:58:42;15.34;86.75
65291;SHT30;51893;59.754;10.110;2023-08-06T02:01:09;15.28;86.77
65291;SHT30;51893;59.754;10.110;2023-08-06T02:03:37;15.26;86.81
65291;SHT30;51893;59.754;10.110;2023-08-06T02:06:05;15.25;86.89
65291;SHT30;51893;59.754;10.110;2023-08-06T02:08:33;15.25;86.81
65291;SHT30;51893;59.754;10.110;2023-08-06T02:11:00;15.24;86.84
65291;SHT30;51893;59.754;10.110;2023-08-06T02:13:30;15.29;86.89
65291;SHT30;51893;59.754;10.110;2023-08-06T02:15:58;15.31;86.78
65291;SHT30;51893;59.754;10.110;2023-08-06T02:18:25;15.31;86.69
65291;SHT30;51893;59.754;10.110;2023-08-06T02:20:56;15.28;86.73
65291;SHT30;51893;59.754;10.110;2023-08-06T02:23:27;15.26;86.89
65291;SHT30;51893;59.754;10.110;2023-08-06T02:26:02;15.26;86.91
65291;SHT30;51893;59.754;10.110;2023-08-06T02:28:32;15.27;86.82
65291;SHT30;51893;59.754;10.110;2023-08-06T02:31:00;15.23;86.75
65291;SHT30;51893;59.754;10.110;2023-08-06T02:33:28;15.16;86.94
65291;SHT30;51893;59.754;10.110;2023-08-06T02:36:02;15.11;87.09
65291;SHT30;51893;59.754;10.110;2023-08-06T02:38:33;15.10;87.13
65291;SHT30;51893;59.754;10.110;2023-08-06T02:41:02;15.13;87.12
65291;SHT30;51893;59.754;10.110;2023-08-06T02:43:31;15.15;87.05
65291;SHT30;51893;59.754;10.110;2023-08-06T02:46:00;15.15;86.87
65291;SHT30;51893;59.754;10.110;2023-08-06T02:48:28;15.17;86.78
65291;SHT30;51893;59.754;10.110;2023-08-06T02:50:57;15.14;86.80
65291;SHT30;51893;59.754;10.110;2023-08-06T02:53:26;15.09;86.87
65291;SHT30;51893;59.754;10.110;2023-08-06T02:55:54;15.04;87.02
65291;SHT30;51893;59.754;10.110;2023-08-06T02:58:23;15.07;87.06
65291;SHT30;51893;59.754;10.110;2023-08-06T03:01:04;15.07;87.04
65291;SHT30;51893;59.754;10.110;2023-08-06T03:03:34;15.06;87.04
65291;SHT30;51893;59.754;10.110;2023-08-06T03:06:02;15.01;87.10
65291;SHT30;51893;59.754;10.110;2023-08-06T03:08:30;14.95;87.21
65291;SHT30;51893;59.754;10.110;2023-08-06T03:10:58;14.93;87.34
65291;SHT30;51893;59.754;10.110;2023-08-06T03:13:26;14.92;87.43
65291;SHT30;51893;59.754;10.110;2023-08-06T03:15:56;14.94;87.47
65291;SHT30;51893;59.754;10.110;2023-08-06T03:18:26;14.98;87.39
65291;SHT30;51893;59.754;10.110;2023-08-06T03:20:55;15.05;87.22
65291;SHT30;51893;59.754;10.110;2023-08-06T03:23:23;15.09;87.16
65291;SHT30;51893;59.754;10.110;2023-08-06T03:25:51;15.11;87.09
65291;SHT30;51893;59.754;10.110;2023-08-06T03:28:19;15.11;87.11
65291;SHT30;51893;59.754;10.110;2023-08-06T03:30:47;15.15;87.18
65291;SHT30;51893;59.754;10.110;2023-08-06T03:33:14;15.21;87.06
65291;SHT30;51893;59.754;10.110;2023-08-06T03:35:44;15.26;86.93
65291;SHT30;51893;59.754;10.110;2023-08-06T03:38:12;15.25;86.79
65291;SHT30;51893;59.754;10.110;2023-08-06T03:40:40;15.28;86.74
65291;SHT30;51893;59.754;10.110;2023-08-06T03:43:08;15.28;86.56
65291;SHT30;51893;59.754;10.110;2023-08-06T03:45:36;15.22;86.65
65291;SHT30;51893;59.754;10.110;2023-08-06T03:48:04;15.18;86.83
65291;SHT30;51893;59.754;10.110;2023-08-06T03:50:31;15.12;86.89
65291;SHT30;51893;59.754;10.110;2023-08-06T03:52:59;15.09;86.99
65291;SHT30;51893;59.754;10.110;2023-08-06T03:55:27;15.09;87.00
65291;SHT30;51893;59.754;10.110;2023-08-06T03:57:55;15.09;87.00
65291;SHT30;51893;59.754;10.110;2023-08-06T04:00:23;15.06;87.01
65291;SHT30;51893;59.754;10.110;2023-08-06T04:02:51;15.04;87.00
65291;SHT30;51893;59.754;10.110;2023-08-06T04:05:19;15.01;87.00
65291;SHT30;51893;59.754;10.110;2023-08-06T04:07:46;14.98;86.92
65291;SHT30;51893;59.754;10.110;2023-08-06T04:10:14;14.94;86.88
65291;SHT30;51893;59.754;10.110;2023-08-06T04:12:44;14.91;86.85
65291;SHT30;51893;59.754;10.110;2023-08-06T04:15:12;14.90;86.97
65291;SHT30;51893;59.754;10.110;2023-08-06T04:17:39;14.95;86.99
65291;SHT30;51893;59.754;10.110;2023-08-06T04:20:07;15.03;86.87
65291;SHT30;51893;59.754;10.110;2023-08-06T04:22:36;15.06;86.74
65291;SHT30;51893;59.754;10.110;2023-08-06T04:25:04;15.08;86.71
65291;SHT30;51893;59.754;10.110;2023-08-06T04:27:32;15.17;86.67
65291;SHT30;51893;59.754;10.110;2023-08-06T04:30:00;15.23;86.61
65291;SHT30;51893;59.754;10.110;2023-08-06T04:32:28;15.24;86.53
65291;SHT30;51893;59.754;10.110;2023-08-06T04:34:57;15.27;86.41
65291;SHT30;51893;59.754;10.110;2023-08-06T04:37:25;15.28;86.51
65291;SHT30;51893;59.754;10.110;2023-08-06T04:39:53;15.24;86.65
65291;SHT30;51893;59.754;10.110;2023-08-06T04:42:21;15.23;86.71
65291;SHT30;51893;59.754;10.110;2023-08-06T04:44:50;15.24;86.70
65291;SHT30;51893;59.754;10.110;2023-08-06T04:47:20;15.22;86.89
65291;SHT30;51893;59.754;10.110;2023-08-06T04:49:48;15.20;87.17
65291;SHT30;51893;59.754;10.110;2023-08-06T04:52:16;15.22;87.38
65291;SHT30;51893;59.754;10.110;2023-08-06T04:54:43;15.23;87.37
65291;SHT30;51893;59.754;10.110;2023-08-06T04:57:11;15.25;87.30
65291;SHT30;51893;59.754;10.110;2023-08-06T04:59:39;15.32;87.22
65291;SHT30;51893;59.754;10.110;2023-08-06T05:02:07;15.39;87.27
65291;SHT30;51893;59.754;10.110;2023-08-06T05:04:35;15.43;87.34
65291;SHT30;51893;59.754;10.110;2023-08-06T05:07:03;15.47;87.40
65291;SHT30;51893;59.754;10.110;2023-08-06T05:09:32;15.52;87.28
65291;SHT30;51893;59.754;10.110;2023-08-06T05:12:00;15.55;87.19
65291;SHT30;51893;59.754;10.110;2023-08-06T05:14:28;15.55;87.02
65291;SHT30;51893;59.754;10.110;2023-08-06T05:16:56;15.53;86.93
65291;SHT30;51893;59.754;10.110;2023-08-06T05:19:24;15.56;86.90
65291;SHT30;51893;59.754;10.110;2023-08-06T05:21:51;15.60;86.91
65291;SHT30;51893;59.754;10.110;2023-08-06T05:24:20;15.64;86.81
65291;SHT30;51893;59.754;10.110;2023-08-06T05:26:49;15.66;86.80
65291;SHT30;51893;59.754;10.110;2023-08-06T05:29:17;15.66;86.84
65291;SHT30;51893;59.754;10.110;2023-08-06T05:31:45;15.65;86.68
65291;SHT30;51893;59.754;10.110;2023-08-06T05:34:13;15.64;86.28
65291;SHT30;51893;59.754;10.110;2023-08-06T05:36:41;15.68;86.17
65291;SHT30;51893;59.754;10.110;2023-08-06T05:39:08;15.69;86.18
65291;SHT30;51893;59.754;10.110;2023-08-06T05:41:36;15.75;86.19
65291;SHT30;51893;59.754;10.110;2023-08-06T05:44:04;15.76;85.97
65291;SHT30;51893;59.754;10.110;2023-08-06T05:46:32;15.75;85.87
65291;SHT30;51893;59.754;10.110;2023-08-06T05:49:00;15.72;85.44
65291;SHT30;51893;59.754;10.110;2023-08-06T05:51:28;15.69;85.28
65291;SHT30;51893;59.754;10.110;2023-08-06T05:53:56;15.68;85.41
65291;SHT30;51893;59.754;10.110;2023-08-06T05:56:24;15.67;85.23
65291;SHT30;51893;59.754;10.110;2023-08-06T05:58:52;15.67;85.31
65291;SHT30;51893;59.754;10.110;2023-08-06T06:01:20;15.66;85.25
65291;SHT30;51893;59.754;10.110;2023-08-06T06:03:48;15.65;85.18
65291;SHT30;51893;59.754;10.110;2023-08-06T06:06:16;15.64;85.08
65291;SHT30;51893;59.754;10.110;2023-08-06T06:08:45;15.65;84.95
65291;SHT30;51893;59.754;10.110;2023-08-06T06:11:13;15.68;84.93
65291;SHT30;51893;59.754;10.110;2023-08-06T06:13:41;15.69;85.40
65291;SHT30;51893;59.754;10.110;2023-08-06T06:16:09;15.69;85.30
65291;SHT30;51893;59.754;10.110;2023-08-06T06:18:36;15.69;85.28
65291;SHT30;51893;59.754;10.110;2023-08-06T06:21:04;15.69;85.38
65291;SHT30;51893;59.754;10.110;2023-08-06T06:23:32;15.65;85.15
65291;SHT30;51893;59.754;10.110;2023-08-06T06:26:00;15.61;84.91
65291;SHT30;51893;59.754;10.110;2023-08-06T06:28:29;15.60;84.87
65291;SHT30;51893;59.754;10.110;2023-08-06T06:31:03;15.59;85.09
65291;SHT30;51893;59.754;10.110;2023-08-06T06:33:31;15.59;85.10
65291;SHT30;51893;59.754;10.110;2023-08-06T06:35:59;15.58;84.87
65291;SHT30;51893;59.754;10.110;2023-08-06T06:38:27;15.57;84.87
65291;SHT30;51893;59.754;10.110;2023-08-06T06:40:55;15.58;84.98
65291;SHT30;51893;59.754;10.110;2023-08-06T06:43:23;15.59;84.90
65291;SHT30;51893;59.754;10.110;2023-08-06T06:45:53;15.62;85.09
65291;SHT30;51893;59.754;10.110;2023-08-06T06:48:21;15.63;85.18
65291;SHT30;51893;59.754;10.110;2023-08-06T06:50:49;15.67;85.50
65291;SHT30;51893;59.754;10.110;2023-08-06T06:53:17;15.70;85.31
65291;SHT30;51893;59.754;10.110;2023-08-06T06:55:45;15.77;85.45
65291;SHT30;51893;59.754;10.110;2023-08-06T06:58:16;15.85;85.60
65291;SHT30;51893;59.754;10.110;2023-08-06T07:00:44;15.94;85.61
65291;SHT30;51893;59.754;10.110;2023-08-06T07:03:14;16.01;85.68
65291;SHT30;51893;59.754;10.110;2023-08-06T07:05:43;16.07;85.56
65291;SHT30;51893;59.754;10.110;2023-08-06T07:08:14;16.11;84.70
65291;SHT30;51893;59.754;10.110;2023-08-06T07:10:42;16.18;84.91
65291;SHT30;51893;59.754;10.110;2023-08-06T07:13:11;16.17;84.78
65291;SHT30;51893;59.754;10.110;2023-08-06T07:15:39;16.19;84.46
65291;SHT30;51893;59.754;10.110;2023-08-06T07:18:07;16.22;84.41
65291;SHT30;51893;59.754;10.110;2023-08-06T07:20:34;16.27;84.31
65291;SHT30;51893;59.754;10.110;2023-08-06T07:23:02;16.34;84.24
65291;SHT30;51893;59.754;10.110;2023-08-06T07:25:32;16.43;83.82
65291;SHT30;51893;59.754;10.110;2023-08-06T07:28:01;16.46;83.25
65291;SHT30;51893;59.754;10.110;2023-08-06T07:30:30;16.50;82.39
65291;SHT30;51893;59.754;10.110;2023-08-06T07:32:58;16.51;81.57
65291;SHT30;51893;59.754;10.110;2023-08-06T07:35:28;16.55;81.65
65291;SHT30;51893;59.754;10.110;2023-08-06T07:37:58;16.63;82.39
65291;SHT30;51893;59.754;10.110;2023-08-06T07:40:28;16.70;82.14
65291;SHT30;51893;59.754;10.110;2023-08-06T07:42:56;16.76;82.13
65291;SHT30;51893;59.754;10.110;2023-08-06T07:45:24;16.82;81.88
65291;SHT30;51893;59.754;10.110;2023-08-06T07:47:52;16.85;81.35
65291;SHT30;51893;59.754;10.110;2023-08-06T07:50:22;16.87;81.63
65291;SHT30;51893;59.754;10.110;2023-08-06T07:52:49;16.90;81.70
65291;SHT30;51893;59.754;10.110;2023-08-06T07:55:17;16.88;81.22
65291;SHT30;51893;59.754;10.110;2023-08-06T07:57:45;16.92;81.14
65291;SHT30;51893;59.754;10.110;2023-08-06T08:00:13;16.95;81.77
65291;SHT30;51893;59.754;10.110;2023-08-06T08:02:41;16.93;81.43
65291;SHT30;51893;59.754;10.110;2023-08-06T08:05:09;16.92;81.30
65291;SHT30;51893;59.754;10.110;2023-08-06T08:07:36;16.93;81.03
65291;SHT30;51893;59.754;10.110;2023-08-06T08:10:06;16.93;80.95
65291;SHT30;51893;59.754;10.110;2023-08-06T08:12:34;16.95;81.07
65291;SHT30;51893;59.754;10.110;2023-08-06T08:15:02;16.95;80.48
65291;SHT30;51893;59.754;10.110;2023-08-06T08:17:30;16.97;80.29
65291;SHT30;51893;59.754;10.110;2023-08-06T08:19:58;17.00;80.15
65291;SHT30;51893;59.754;10.110;2023-08-06T08:22:26;17.03;80.51
65291;SHT30;51893;59.754;10.110;2023-08-06T08:24:54;17.01;80.33
65291;SHT30;51893;59.754;10.110;2023-08-06T08:27:22;17.02;80.18
65291;SHT30;51893;59.754;10.110;2023-08-06T08:29:50;17.02;80.47
65291;SHT30;51893;59.754;10.110;2023-08-06T08:32:18;17.05;80.31
65291;SHT30;51893;59.754;10.110;2023-08-06T08:34:46;17.07;79.74
65291;SHT30;51893;59.754;10.110;2023-08-06T08:37:15;17.11;80.31
65291;SHT30;51893;59.754;10.110;2023-08-06T08:39:43;17.17;79.79
65291;SHT30;51893;59.754;10.110;2023-08-06T08:42:11;17.17;79.23
65291;SHT30;51893;59.754;10.110;2023-08-06T08:44:39;17.17;79.17
65291;SHT30;51893;59.754;10.110;2023-08-06T08:47:10;17.19;78.90
65291;SHT30;51893;59.754;10.110;2023-08-06T08:49:38;17.22;78.60
65291;SHT30;51893;59.754;10.110;2023-08-06T08:52:08;17.27;78.42
65291;SHT30;51893;59.754;10.110;2023-08-06T08:54:40;17.33;78.18
65291;SHT30;51893;59.754;10.110;2023-08-06T08:57:09;17.39;78.20
65291;SHT30;51893;59.754;10.110;2023-08-06T08:59:37;17.41;77.82
65291;SHT30;51893;59.754;10.110;2023-08-06T09:02:05;17.45;76.78
65291;SHT30;51893;59.754;10.110;2023-08-06T09:04:37;17.51;77.50
65291;SHT30;51893;59.754;10.110;2023-08-06T09:07:05;17.57;77.18
65291;SHT30;51893;59.754;10.110;2023-08-06T09:09:38;17.58;76.57
65291;SHT30;51893;59.754;10.110;2023-08-06T09:12:14;17.60;75.94
65291;SHT30;51893;59.754;10.110;2023-08-06T09:14:42;17.62;75.81
65291;SHT30;51893;59.754;10.110;2023-08-06T09:17:10;17.62;75.06
65291;SHT30;51893;59.754;10.110;2023-08-06T09:19:41;17.66;74.63
65291;SHT30;51893;59.754;10.110;2023-08-06T09:22:13;17.71;74.43
65291;SHT30;51893;59.754;10.110;2023-08-06T09:24:43;17.71;74.03
65291;SHT30;51893;59.754;10.110;2023-08-06T09:27:12;17.71;74.10
65291;SHT30;51893;59.754;10.110;2023-08-06T09:29:42;17.68;74.55
65291;SHT30;51893;59.754;10.110;2023-08-06T09:32:11;17.72;75.41
65291;SHT30;51893;59.754;10.110;2023-08-06T09:37:10;17.71;74.89
65291;SHT30;51893;59.754;10.110;2023-08-06T09:39:40;17.73;75.34
65291;SHT30;51893;59.754;10.110;2023-08-06T09:42:10;17.81;74.99
65291;SHT30;51893;59.754;10.110;2023-08-06T09:44:42;17.90;74.38
65291;SHT30;51893;59.754;10.110;2023-08-06T09:47:10;17.99;73.95
65291;SHT30;51893;59.754;10.110;2023-08-06T09:49:41;18.08;74.26
65291;SHT30;51893;59.754;10.110;2023-08-06T09:52:11;18.10;73.06
65291;SHT30;51893;59.754;10.110;2023-08-06T09:54:41;18.11;72.74
65291;SHT30;51893;59.754;10.110;2023-08-06T09:57:11;18.16;72.68
65291;SHT30;51893;59.754;10.110;2023-08-06T09:59:39;18.23;73.61
65291;SHT30;51893;59.754;10.110;2023-08-06T10:02:11;18.26;72.80
65291;SHT30;51893;59.754;10.110;2023-08-06T10:04:42;18.30;72.02
65291;SHT30;51893;59.754;10.110;2023-08-06T10:07:21;18.39;72.17
65291;SHT30;51893;59.754;10.110;2023-08-06T10:09:52;18.43;70.23
65291;SHT30;51893;59.754;10.110;2023-08-06T10:12:19;18.44;69.35
65291;SHT30;51893;59.754;10.110;2023-08-06T10:14:49;18.55;70.65
65291;SHT30;51893;59.754;10.110;2023-08-06T10:17:19;18.63;70.62
65291;SHT30;51893;59.754;10.110;2023-08-06T10:19:50;18.68;71.44
65291;SHT30;51893;59.754;10.110;2023-08-06T10:22:22;18.72;70.87
65291;SHT30;51893;59.754;10.110;2023-08-06T10:24:54;18.67;71.09
65291;SHT30;51893;59.754;10.110;2023-08-06T10:27:32;18.67;71.28
65291;SHT30;51893;59.754;10.110;2023-08-06T10:32:58;18.81;70.20
65291;SHT30;51893;59.754;10.110;2023-08-06T10:35:51;18.81;68.83
65291;SHT30;51893;59.754;10.110;2023-08-06T10:38:24;18.82;68.98
65291;SHT30;51893;59.754;10.110;2023-08-06T10:46:02;18.97;68.69
65291;SHT30;51893;59.754;10.110;2023-08-06T10:48:41;19.00;68.95
65291;SHT30;51893;59.754;10.110;2023-08-06T10:51:13;19.06;69.12
65291;SHT30;51893;59.754;10.110;2023-08-06T10:53:43;19.13;68.86
65291;SHT30;51893;59.754;10.110;2023-08-06T10:56:15;19.26;69.15
65291;SHT30;51893;59.754;10.110;2023-08-06T10:58:44;19.30;68.46
65291;SHT30;51893;59.754;10.110;2023-08-06T11:01:13;19.32;67.39
65291;SHT30;51893;59.754;10.110;2023-08-06T11:03:45;19.37;67.74
65291;SHT30;51893;59.754;10.110;2023-08-06T11:06:17;19.51;68.63
65291;SHT30;51893;59.754;10.110;2023-08-06T11:08:47;19.64;68.80
65291;SHT30;51893;59.754;10.110;2023-08-06T11:11:17;19.68;67.57
65291;SHT30;51893;59.754;10.110;2023-08-06T11:13:48;19.61;66.55
65291;SHT30;51893;59.754;10.110;2023-08-06T11:16:19;19.53;67.30
65291;SHT30;51893;59.754;10.110;2023-08-06T11:18:49;19.50;66.66
65291;SHT30;51893;59.754;10.110;2023-08-06T11:21:20;19.45;67.40
65291;SHT30;51893;59.754;10.110;2023-08-06T11:23:49;19.44;67.41
65291;SHT30;51893;59.754;10.110;2023-08-06T11:26:19;19.39;66.66
65291;SHT30;51893;59.754;10.110;2023-08-06T11:28:47;19.39;66.87
65291;SHT30;51893;59.754;10.110;2023-08-06T11:31:21;19.38;67.54
65291;SHT30;51893;59.754;10.110;2023-08-06T11:33:50;19.39;67.72
65291;SHT30;51893;59.754;10.110;2023-08-06T11:36:32;19.41;65.94
65291;SHT30;51893;59.754;10.110;2023-08-06T11:39:01;19.41;64.50
65291;SHT30;51893;59.754;10.110;2023-08-06T11:41:30;19.43;64.20
65291;SHT30;51893;59.754;10.110;2023-08-06T11:43:59;19.52;65.12
65291;SHT30;51893;59.754;10.110;2023-08-06T11:46:28;19.62;66.02
65291;SHT30;51893;59.754;10.110;2023-08-06T11:48:56;19.74;64.94
65291;SHT30;51893;59.754;10.110;2023-08-06T11:51:28;19.76;63.52
65291;SHT30;51893;59.754;10.110;2023-08-06T11:53:58;19.76;62.84
65291;SHT30;51893;59.754;10.110;2023-08-06T11:56:26;19.84;64.23
65291;SHT30;51893;59.754;10.110;2023-08-06T11:58:55;19.92;63.71
65291;SHT30;51893;59.754;10.110;2023-08-06T12:01:23;19.90;63.69
65291;SHT30;51893;59.754;10.110;2023-08-06T12:03:52;19.86;64.28
65291;SHT30;51893;59.754;10.110;2023-08-06T12:06:28;19.87;64.30
65291;SHT30;51893;59.754;10.110;2023-08-06T12:08:56;19.89;64.61
65291;SHT30;51893;59.754;10.110;2023-08-06T12:11:24;19.87;64.12
65291;SHT30;51893;59.754;10.110;2023-08-06T12:13:52;19.79;63.93
65291;SHT30;51893;59.754;10.110;2023-08-06T12:16:20;19.75;63.63
65291;SHT30;51893;59.754;10.110;2023-08-06T12:18:49;19.70;63.62
65291;SHT30;51893;59.754;10.110;2023-08-06T12:21:17;19.67;63.90
65291;SHT30;51893;59.754;10.110;2023-08-06T12:23:44;19.63;64.37
65291;SHT30;51893;59.754;10.110;2023-08-06T12:26:14;19.61;64.81
65291;SHT30;51893;59.754;10.110;2023-08-06T12:28:42;19.61;64.47
65291;SHT30;51893;59.754;10.110;2023-08-06T12:31:10;19.56;64.01
65291;SHT30;51893;59.754;10.110;2023-08-06T12:33:37;19.55;63.82
65291;SHT30;51893;59.754;10.110;2023-08-06T12:36:05;19.51;64.12
65291;SHT30;51893;59.754;10.110;2023-08-06T12:38:33;19.56;65.09
65291;SHT30;51893;59.754;10.110;2023-08-06T12:41:01;19.62;65.17
65291;SHT30;51893;59.754;10.110;2023-08-06T12:43:30;19.69;64.77
65291;SHT30;51893;59.754;10.110;2023-08-06T12:45:57;19.68;63.93
65291;SHT30;51893;59.754;10.110;2023-08-06T12:48:25;19.74;65.02
65291;SHT30;51893;59.754;10.110;2023-08-06T12:50:53;19.80;64.65
65291;SHT30;51893;59.754;10.110;2023-08-06T12:53:21;19.78;64.49
65291;SHT30;51893;59.754;10.110;2023-08-06T12:55:50;19.72;63.93
65291;SHT30;51893;59.754;10.110;2023-08-06T12:58:19;19.63;63.65
65291;SHT30;51893;59.754;10.110;2023-08-06T13:00:46;19.62;63.85
65291;SHT30;51893;59.754;10.110;2023-08-06T13:03:15;19.64;64.02
65291;SHT30;51893;59.754;10.110;2023-08-06T13:05:43;19.71;64.21
65291;SHT30;51893;59.754;10.110;2023-08-06T13:08:11;19.78;63.89
65291;SHT30;51893;59.754;10.110;2023-08-06T13:10:40;19.78;63.30
65291;SHT30;51893;59.754;10.110;2023-08-06T13:13:08;19.83;63.73
65291;SHT30;51893;59.754;10.110;2023-08-06T13:15:37;19.92;64.93
65291;SHT30;51893;59.754;10.110;2023-08-06T13:18:05;19.99;63.60
65291;SHT30;51893;59.754;10.110;2023-08-06T13:20:33;19.97;62.86
65291;SHT30;51893;59.754;10.110;2023-08-06T13:23:01;20.03;63.79
65291;SHT30;51893;59.754;10.110;2023-08-06T13:25:29;20.12;63.13
65291;SHT30;51893;59.754;10.110;2023-08-06T13:27:56;20.09;62.19
65291;SHT30;51893;59.754;10.110;2023-08-06T13:30:24;19.98;62.24
65291;SHT30;51893;59.754;10.110;2023-08-06T13:32:53;19.97;62.69
65291;SHT30;51893;59.754;10.110;2023-08-06T13:35:23;20.02;62.70
65291;SHT30;51893;59.754;10.110;2023-08-06T13:37:52;20.01;61.46
65291;SHT30;51893;59.754;10.110;2023-08-06T13:40:20;20.00;60.65
65291;SHT30;51893;59.754;10.110;2023-08-06T13:42:48;20.11;61.43
65291;SHT30;51893;59.754;10.110;2023-08-06T13:45:17;20.16;60.91
65291;SHT30;51893;59.754;10.110;2023-08-06T13:47:46;20.15;60.24
65291;SHT30;51893;59.754;10.110;2023-08-06T13:50:14;20.20;60.97
65291;SHT30;51893;59.754;10.110;2023-08-06T13:52:41;20.29;62.53
65291;SHT30;51893;59.754;10.110;2023-08-06T13:55:09;20.35;61.19
65291;SHT30;51893;59.754;10.110;2023-08-06T13:57:37;20.42;62.01
65291;SHT30;51893;59.754;10.110;2023-08-06T14:00:05;20.48;61.92
65291;SHT30;51893;59.754;10.110;2023-08-06T14:02:34;20.51;60.62
65291;SHT30;51893;59.754;10.110;2023-08-06T14:05:02;20.52;60.02
65291;SHT30;51893;59.754;10.110;2023-08-06T14:07:31;20.49;59.27
65291;SHT30;51893;59.754;10.110;2023-08-06T14:09:59;20.42;59.45
65291;SHT30;51893;59.754;10.110;2023-08-06T14:12:27;20.41;59.70
65291;SHT30;51893;59.754;10.110;2023-08-06T14:14:55;20.44;60.08
65291;SHT30;51893;59.754;10.110;2023-08-06T14:17:22;20.48;60.50
65291;SHT30;51893;59.754;10.110;2023-08-06T14:19:51;20.50;60.29
65291;SHT30;51893;59.754;10.110;2023-08-06T14:22:18;20.50;59.85
65291;SHT30;51893;59.754;10.110;2023-08-06T14:24:46;20.51;59.45
65291;SHT30;51893;59.754;10.110;2023-08-06T14:27:15;20.48;58.50
65291;SHT30;51893;59.754;10.110;2023-08-06T14:29:44;20.42;58.19
65291;SHT30;51893;59.754;10.110;2023-08-06T14:32:12;20.39;58.09
65291;SHT30;51893;59.754;10.110;2023-08-06T14:34:43;20.40;57.90
65291;SHT30;51893;59.754;10.110;2023-08-06T14:37:12;20.39;58.10
65291;SHT30;51893;59.754;10.110;2023-08-06T14:39:40;20.46;59.31
65291;SHT30;51893;59.754;10.110;2023-08-06T14:42:07;20.50;60.34
65291;SHT30;51893;59.754;10.110;2023-08-06T14:44:36;20.54;59.85
65291;SHT30;51893;59.754;10.110;2023-08-06T14:47:07;20.55;58.62
65291;SHT30;51893;59.754;10.110;2023-08-06T14:49:35;20.57;59.56
65291;SHT30;51893;59.754;10.110;2023-08-06T14:52:03;20.57;59.47
65291;SHT30;51893;59.754;10.110;2023-08-06T14:54:31;20.55;58.78
65291;SHT30;51893;59.754;10.110;2023-08-06T14:56:58;20.55;59.09
65291;SHT30;51893;59.754;10.110;2023-08-06T14:59:26;20.56;58.20
65291;SHT30;51893;59.754;10.110;2023-08-06T15:01:54;20.57;58.65
65291;SHT30;51893;59.754;10.110;2023-08-06T15:04:22;20.59;58.53
65291;SHT30;51893;59.754;10.110;2023-08-06T15:06:51;20.52;57.80
65291;SHT30;51893;59.754;10.110;2023-08-06T15:09:19;20.46;58.05
65291;SHT30;51893;59.754;10.110;2023-08-06T15:11:49;20.47;58.59
65291;SHT30;51893;59.754;10.110;2023-08-06T15:14:17;20.48;59.54
65291;SHT30;51893;59.754;10.110;2023-08-06T15:16:46;20.47;57.95
65291;SHT30;51893;59.754;10.110;2023-08-06T15:19:14;20.44;58.38
65291;SHT30;51893;59.754;10.110;2023-08-06T15:21:42;20.40;58.95
65291;SHT30;51893;59.754;10.110;2023-08-06T15:24:11;20.37;59.29
65291;SHT30;51893;59.754;10.110;2023-08-06T15:26:38;20.30;58.81
65291;SHT30;51893;59.754;10.110;2023-08-06T15:29:06;20.21;58.77
65291;SHT30;51893;59.754;10.110;2023-08-06T15:31:37;20.18;59.28
65291;SHT30;51893;59.754;10.110;2023-08-06T15:34:06;20.15;58.72
65291;SHT30;51893;59.754;10.110;2023-08-06T15:36:40;20.13;59.03
65291;SHT30;51893;59.754;10.110;2023-08-06T15:39:12;20.15;59.47
65291;SHT30;51893;59.754;10.110;2023-08-06T15:41:39;20.18;59.62
65291;SHT30;51893;59.754;10.110;2023-08-06T15:44:07;20.20;59.44